createdAt,value
2023-03-17T00:01:17.162Z,10.73
2023-03-17T00:03:46.354Z,10.74
2023-03-17T00:06:17.757Z,10.76
2023-03-17T00:08:46.293Z,10.75
2023-03-17T00:11:16.070Z,10.75
2023-03-17T00:13:44.586Z,10.76
2023-03-17T00:16:17.140Z,10.77
2023-03-17T00:18:44.766Z,10.78
2023-03-17T00:21:17.506Z,10.77
2023-03-17T00:23:49.695Z,10.78
2023-03-17T00:26:16.589Z,10.77
2023-03-17T00:28:43.308Z,10.78
2023-03-17T00:31:15.247Z,10.79
2023-03-17T00:33:43.231Z,10.80
2023-03-17T00:36:15.744Z,10.83
2023-03-17T00:38:42.603Z,10.83
2023-03-17T00:41:10.874Z,10.85
2023-03-17T00:43:37.382Z,10.85
2023-03-17T00:46:14.744Z,10.83
2023-03-17T00:48:43.501Z,10.84
2023-03-17T00:51:11.430Z,10.84
2023-03-17T00:53:38.009Z,10.84
2023-03-17T00:56:11.861Z,10.85
2023-03-17T00:58:38.410Z,10.83
2023-03-17T01:01:05.184Z,10.85
2023-03-17T01:03:33.092Z,10.85
2023-03-17T01:06:00.468Z,10.85
2023-03-17T01:08:30.088Z,10.85
2023-03-17T01:10:57.281Z,10.87
2023-03-17T01:13:24.312Z,10.86
2023-03-17T01:15:52.413Z,10.87
2023-03-17T01:18:22.776Z,10.88
2023-03-17T01:20:50.573Z,10.88
2023-03-17T01:23:17.629Z,10.88
2023-03-17T01:25:44.599Z,10.88
2023-03-17T01:28:16.793Z,10.88
2023-03-17T01:30:43.773Z,10.87
2023-03-17T01:33:13.467Z,10.86
2023-03-17T01:35:41.923Z,10.84
2023-03-17T01:38:09.908Z,10.84
2023-03-17T01:40:42.632Z,10.84
2023-03-17T01:54:48.302Z,10.76
2023-03-17T01:59:55.578Z,10.73
2023-03-17T02:02:28.932Z,10.70
2023-03-17T02:04:55.515Z,10.70
2023-03-17T02:07:24.025Z,10.68
2023-03-17T02:09:52.619Z,10.68
2023-03-17T02:12:22.447Z,10.69
2023-03-17T02:14:48.995Z,10.69
2023-03-17T02:17:15.544Z,10.66
2023-03-17T02:19:42.534Z,10.67
2023-03-17T02:22:09.253Z,10.67
2023-03-17T02:27:18.096Z,10.67
2023-03-17T02:29:46.439Z,10.66
2023-03-17T02:32:15.805Z,10.65
2023-03-17T02:34:42.394Z,10.63
2023-03-17T02:37:09.244Z,10.62
2023-03-17T02:39:36.398Z,10.61
2023-03-17T02:42:04.172Z,10.62
2023-03-17T02:44:31.487Z,10.62
2023-03-17T02:46:59.092Z,10.60
2023-03-17T02:49:27.287Z,10.59
2023-03-17T02:51:54.273Z,10.58
2023-03-17T02:54:20.868Z,10.54
2023-03-17T02:56:47.413Z,10.50
2023-03-17T02:59:14.008Z,10.45
2023-03-17T03:01:40.637Z,10.43
2023-03-17T03:04:07.505Z,10.43
2023-03-17T03:06:34.438Z,10.42
2023-03-17T03:09:01.003Z,10.41
2023-03-17T03:11:29.346Z,10.40
2023-03-17T03:13:56.259Z,10.41
2023-03-17T03:16:22.972Z,10.38
2023-03-17T03:18:49.619Z,10.37
2023-03-17T03:21:16.194Z,10.32
2023-03-17T03:23:43.340Z,10.33
2023-03-17T03:26:09.922Z,10.32
2023-03-17T03:28:36.485Z,10.32
2023-03-17T03:31:03.435Z,10.29
2023-03-17T03:33:30.026Z,10.27
2023-03-17T03:35:57.042Z,10.25
2023-03-17T03:38:23.666Z,10.24
2023-03-17T03:40:50.177Z,10.22
2023-03-17T03:43:23.400Z,10.19
2023-03-17T03:45:51.377Z,10.17
2023-03-17T03:48:18.535Z,10.19
2023-03-17T03:50:45.721Z,10.17
2023-03-17T03:53:12.278Z,10.19
2023-03-17T03:55:38.825Z,10.19
2023-03-17T03:58:05.417Z,10.16
2023-03-17T04:00:33.037Z,10.17
2023-03-17T04:03:00.657Z,10.16
2023-03-17T04:05:27.368Z,10.12
2023-03-17T04:07:54.084Z,10.09
2023-03-17T04:10:20.651Z,10.11
2023-03-17T04:12:47.288Z,10.08
2023-03-17T04:15:16.869Z,10.07
2023-03-17T04:17:44.464Z,10.01
2023-03-17T04:20:13.228Z,9.96
2023-03-17T04:22:41.750Z,9.94
2023-03-17T04:25:10.322Z,9.91
2023-03-17T04:27:37.521Z,9.85
2023-03-17T04:30:05.466Z,9.82
2023-03-17T04:32:32.251Z,9.79
2023-03-17T04:34:58.890Z,9.76
2023-03-17T04:37:25.742Z,9.79
2023-03-17T04:39:52.339Z,9.76
2023-03-17T04:42:19.205Z,9.71
2023-03-17T04:44:46.236Z,9.74
2023-03-17T04:47:12.781Z,9.72
2023-03-17T04:49:39.495Z,9.72
2023-03-17T04:52:06.785Z,9.69
2023-03-17T04:54:33.360Z,9.70
2023-03-17T04:56:59.968Z,9.69
2023-03-17T04:59:27.368Z,9.67
2023-03-17T05:01:53.919Z,9.66
2023-03-17T05:04:31.144Z,9.63
2023-03-17T05:06:58.292Z,9.59
2023-03-17T05:09:26.924Z,9.59
2023-03-17T05:11:53.576Z,9.55
2023-03-17T05:14:20.522Z,9.55
2023-03-17T05:16:48.471Z,9.54
2023-03-17T05:19:16.411Z,9.53
2023-03-17T05:21:43.008Z,9.49
2023-03-17T05:24:09.977Z,9.51
2023-03-17T05:26:36.561Z,9.47
2023-03-17T05:29:03.529Z,9.44
2023-03-17T05:31:31.102Z,9.42
2023-03-17T05:33:58.874Z,9.39
2023-03-17T05:36:25.572Z,9.30
2023-03-17T05:38:52.488Z,9.31
2023-03-17T05:41:19.329Z,9.29
2023-03-17T05:43:46.140Z,9.25
2023-03-17T05:46:13.017Z,9.23
2023-03-17T05:48:39.612Z,9.22
2023-03-17T05:51:06.596Z,9.20
2023-03-17T05:53:33.397Z,9.18
2023-03-17T05:55:59.921Z,9.19
2023-03-17T05:58:26.936Z,9.17
2023-03-17T06:00:53.662Z,9.18
2023-03-17T06:03:21.450Z,9.13
2023-03-17T06:05:48.256Z,9.11
2023-03-17T06:08:15.057Z,9.10
2023-03-17T06:10:43.115Z,9.11
2023-03-17T06:13:11.123Z,9.09
2023-03-17T06:15:37.852Z,9.05
2023-03-17T06:18:05.705Z,9.07
2023-03-17T06:20:33.159Z,9.06
2023-03-17T06:23:05.563Z,9.03
2023-03-17T06:25:34.463Z,9.04
2023-03-17T06:28:02.882Z,8.99
2023-03-17T06:30:30.799Z,9.03
2023-03-17T06:32:57.396Z,9.02
2023-03-17T06:35:24.802Z,9.06
2023-03-17T06:37:51.687Z,9.04
2023-03-17T06:40:18.369Z,9.04
2023-03-17T06:42:45.065Z,9.05
2023-03-17T06:45:12.925Z,9.06
2023-03-17T06:47:39.820Z,9.11
2023-03-17T06:50:09.712Z,9.10
2023-03-17T06:52:37.283Z,9.11
2023-03-17T06:55:04.484Z,9.05
2023-03-17T06:57:31.811Z,9.07
2023-03-17T06:59:58.844Z,9.05
2023-03-17T07:02:25.565Z,9.08
2023-03-17T07:04:52.335Z,9.12
2023-03-17T07:07:20.836Z,9.16
2023-03-17T07:09:47.914Z,9.22
2023-03-17T07:12:14.683Z,9.29
2023-03-17T07:14:41.774Z,9.35
2023-03-17T07:17:12.921Z,9.45
2023-03-17T07:19:40.656Z,9.51
2023-03-17T07:22:08.212Z,9.54
2023-03-17T07:24:34.789Z,9.54
2023-03-17T07:27:01.476Z,9.61
2023-03-17T07:29:29.314Z,9.60
2023-03-17T07:31:56.102Z,9.70
2023-03-17T07:34:23.209Z,9.71
2023-03-17T07:36:49.837Z,9.75
2023-03-17T07:39:16.755Z,9.77
2023-03-17T07:41:44.291Z,9.77
2023-03-17T07:44:11.502Z,9.78
2023-03-17T07:46:39.071Z,10.05
2023-03-17T07:49:06.292Z,10.19
2023-03-17T07:51:33.119Z,10.48
2023-03-17T07:54:04.015Z,11.20
2023-03-17T07:56:32.869Z,12.01
2023-03-17T07:58:59.992Z,12.49
2023-03-17T08:01:27.963Z,12.60
2023-03-17T08:03:55.703Z,12.64
2023-03-17T08:06:24.577Z,12.62
2023-03-17T08:08:52.436Z,12.43
2023-03-17T08:11:20.060Z,12.21
2023-03-17T08:13:47.906Z,11.99
2023-03-17T08:16:14.468Z,11.79
2023-03-17T08:18:41.168Z,11.71
2023-03-17T08:21:07.995Z,11.65
2023-03-17T08:23:34.698Z,11.60
2023-03-17T08:26:03.328Z,11.50
2023-03-17T08:28:30.717Z,11.51
2023-03-17T08:31:17.163Z,11.47
2023-03-17T08:33:48.732Z,11.54
2023-03-17T08:36:18.619Z,11.54
2023-03-17T08:38:46.685Z,11.63
2023-03-17T08:41:16.713Z,11.65
2023-03-17T08:43:43.973Z,11.90
2023-03-17T08:48:56.533Z,12.47
2023-03-17T08:51:26.690Z,12.40
2023-03-17T08:53:54.996Z,12.34
2023-03-17T08:56:22.703Z,12.26
2023-03-17T08:58:49.505Z,12.18
2023-03-17T09:01:17.263Z,12.07
2023-03-17T09:03:45.221Z,12.02
2023-03-17T09:06:12.380Z,12.02
2023-03-17T09:08:44.541Z,12.00
2023-03-17T09:11:14.166Z,12.16
2023-03-17T09:13:41.516Z,12.44
2023-03-17T09:16:08.951Z,12.67
2023-03-17T09:18:35.946Z,12.79
2023-03-17T09:21:03.692Z,12.89
2023-03-17T09:23:30.284Z,13.15
2023-03-17T09:25:57.237Z,13.64
2023-03-17T09:28:24.675Z,14.30
2023-03-17T09:30:51.589Z,14.82
2023-03-17T09:33:19.026Z,15.25
2023-03-17T09:35:45.608Z,15.53
2023-03-17T09:38:12.834Z,15.63
2023-03-17T09:40:48.037Z,15.80
2023-03-17T09:45:52.255Z,15.87
2023-03-17T09:48:44.791Z,15.77
2023-03-17T09:51:15.528Z,16.02
2023-03-17T09:53:51.409Z,16.06
2023-03-17T09:56:20.047Z,15.86
2023-03-17T09:58:52.984Z,15.66
2023-03-17T10:01:19.945Z,15.37
2023-03-17T10:03:47.548Z,15.04
2023-03-17T10:06:36.834Z,14.74
2023-03-17T10:11:44.196Z,14.47
2023-03-17T10:14:28.661Z,14.25
2023-03-17T10:17:05.842Z,14.18
2023-03-17T10:19:41.724Z,14.11
2023-03-17T10:24:57.649Z,14.01
2023-03-17T10:27:24.945Z,13.91
2023-03-17T10:29:51.645Z,13.80
2023-03-17T10:32:18.222Z,13.74
2023-03-17T10:34:45.104Z,13.76
2023-03-17T10:39:53.504Z,13.80
2023-03-17T10:45:20.814Z,13.88
2023-03-17T10:47:50.085Z,14.12
2023-03-17T10:53:27.946Z,14.38
2023-03-17T10:56:01.067Z,14.45
2023-03-17T11:01:17.888Z,14.52
2023-03-17T11:03:44.572Z,14.50
2023-03-17T11:06:14.954Z,14.47
2023-03-17T11:08:49.675Z,14.52
2023-03-17T11:11:35.429Z,14.51
2023-03-17T11:22:16.706Z,14.59
2023-03-17T11:24:56.879Z,14.67
2023-03-17T11:27:36.966Z,14.77
2023-03-17T11:32:50.937Z,14.78
2023-03-17T11:38:22.387Z,14.82
2023-03-17T11:46:50.710Z,14.81
2023-03-17T11:52:03.970Z,14.74
2023-03-17T12:03:08.744Z,14.77
2023-03-17T12:05:37.275Z,14.78
2023-03-17T12:10:46.293Z,14.85
2023-03-17T12:13:19.561Z,14.87
2023-03-17T12:15:52.905Z,14.95
2023-03-17T12:18:34.756Z,15.00
2023-03-17T12:21:11.970Z,15.11
2023-03-17T12:27:05.977Z,15.27
2023-03-17T12:32:26.451Z,15.53
2023-03-17T12:34:57.490Z,15.63
2023-03-17T12:37:27.514Z,15.80
2023-03-17T12:42:42.584Z,15.91
2023-03-17T12:51:06.880Z,16.05
2023-03-17T12:53:36.772Z,16.08
2023-03-17T12:56:10.278Z,16.02
2023-03-17T12:58:45.212Z,16.14
2023-03-17T13:04:27.858Z,16.26
2023-03-17T13:23:42.701Z,16.35
2023-03-17T13:26:13.333Z,16.39
2023-03-17T13:28:43.758Z,16.43
2023-03-17T13:31:35.460Z,16.43
2023-03-17T13:36:47.990Z,16.66
2023-03-17T13:39:54.546Z,16.70
2023-03-17T13:45:34.500Z,16.64
2023-03-17T13:48:37.513Z,16.68
2023-03-17T13:53:49.551Z,16.80
2023-03-17T13:56:22.448Z,16.80
2023-03-17T13:59:05.978Z,16.63
2023-03-17T14:01:40.849Z,16.50
2023-03-17T14:04:17.661Z,16.37
2023-03-17T14:06:46.785Z,16.28
2023-03-17T14:09:38.034Z,16.23
2023-03-17T14:12:36.793Z,16.22
2023-03-17T14:15:16.525Z,16.32
2023-03-17T14:17:50.357Z,16.43
2023-03-17T14:22:57.400Z,16.37
2023-03-17T14:25:30.890Z,16.23
2023-03-17T14:27:58.358Z,16.29
2023-03-17T14:30:28.675Z,16.38
2023-03-17T14:33:02.186Z,16.38
2023-03-17T14:35:32.151Z,16.28
2023-03-17T14:38:00.311Z,16.20
2023-03-17T14:40:32.364Z,16.13
2023-03-17T14:42:58.944Z,16.06
2023-03-17T14:45:48.577Z,15.99
2023-03-17T14:48:18.018Z,15.93
2023-03-17T14:50:55.852Z,15.88
2023-03-17T14:53:24.244Z,15.91
2023-03-17T14:55:52.825Z,15.99
2023-03-17T14:58:31.360Z,15.93
2023-03-17T15:01:15.051Z,15.83
2023-03-17T15:03:56.366Z,15.73
2023-03-17T15:06:29.952Z,15.67
2023-03-17T15:09:00.443Z,15.68
2023-03-17T15:11:36.834Z,15.65
2023-03-17T15:14:12.618Z,15.68
2023-03-17T15:16:40.900Z,15.63
2023-03-17T15:19:19.448Z,15.62
2023-03-17T15:21:46.297Z,15.52
2023-03-17T15:24:36.472Z,15.55
2023-03-17T15:27:11.261Z,15.61
2023-03-17T15:29:37.819Z,15.67
2023-03-17T15:32:12.765Z,15.60
2023-03-17T15:34:40.689Z,15.70
2023-03-17T15:37:17.576Z,15.61
2023-03-17T15:39:44.104Z,15.63
2023-03-17T15:42:11.097Z,15.55
2023-03-17T15:44:37.777Z,15.57
2023-03-17T15:47:04.993Z,15.51
2023-03-17T15:49:31.575Z,15.47
2023-03-17T15:51:58.120Z,15.50
2023-03-17T15:54:24.744Z,15.50
2023-03-17T15:56:51.507Z,15.46
2023-03-17T15:59:21.452Z,15.44
2023-03-17T16:01:49.436Z,15.45
2023-03-17T16:04:17.973Z,15.38
2023-03-17T16:06:44.738Z,15.37
2023-03-17T16:09:15.395Z,15.38
2023-03-17T16:11:41.986Z,15.39
2023-03-17T16:14:10.573Z,15.32
2023-03-17T16:16:40.976Z,15.31
2023-03-17T16:19:16.345Z,15.31
2023-03-17T16:21:43.355Z,15.28
2023-03-17T16:24:18.871Z,15.26
2023-03-17T16:26:45.672Z,15.25
2023-03-17T16:29:14.510Z,15.25
2023-03-17T16:31:41.406Z,15.19
2023-03-17T16:34:17.028Z,15.04
2023-03-17T16:36:44.080Z,15.04
2023-03-17T16:39:16.881Z,15.02
2023-03-17T16:41:46.048Z,14.92
2023-03-17T16:44:13.994Z,14.98
2023-03-17T16:46:44.814Z,15.00
2023-03-17T16:49:14.883Z,14.95
2023-03-17T16:51:42.039Z,14.93
2023-03-17T16:54:10.041Z,14.85
2023-03-17T16:56:38.587Z,14.78
2023-03-17T16:59:07.684Z,14.75
2023-03-17T17:01:34.689Z,14.70
2023-03-17T17:04:01.401Z,14.64
2023-03-17T17:06:28.084Z,14.59
2023-03-17T17:08:54.758Z,14.52
2023-03-17T17:11:21.652Z,14.47
2023-03-17T17:13:49.416Z,14.44
2023-03-17T17:16:29.329Z,14.37
2023-03-17T17:18:57.210Z,14.35
2023-03-17T17:21:23.876Z,14.34
2023-03-17T17:23:52.749Z,14.35
2023-03-17T17:26:19.696Z,14.26
2023-03-17T17:28:46.410Z,14.29
2023-03-17T17:31:13.032Z,14.26
2023-03-17T17:33:40.073Z,14.19
2023-03-17T17:36:12.723Z,14.16
2023-03-17T17:38:39.312Z,14.11
2023-03-17T17:41:07.034Z,14.07
2023-03-17T17:43:33.721Z,14.02
2023-03-17T17:46:00.994Z,13.97
2023-03-17T17:48:28.134Z,13.93
2023-03-17T17:50:56.179Z,13.90
2023-03-17T17:53:22.887Z,13.81
2023-03-17T17:55:49.932Z,13.77
2023-03-17T17:58:19.195Z,13.71
2023-03-17T18:00:46.215Z,13.66
2023-03-17T18:03:13.162Z,13.59
2023-03-17T18:05:39.856Z,13.52
2023-03-17T18:08:06.558Z,13.46
2023-03-17T18:10:34.332Z,13.40
2023-03-17T18:13:01.698Z,13.32
2023-03-17T18:15:28.722Z,13.25
2023-03-17T18:17:56.062Z,13.21
2023-03-17T18:20:23.634Z,13.16
2023-03-17T18:22:50.777Z,13.07
2023-03-17T18:25:18.078Z,13.01
2023-03-17T18:27:45.657Z,12.96
2023-03-17T18:30:18.734Z,12.91
2023-03-17T18:32:45.700Z,12.83
2023-03-17T18:35:16.534Z,12.77
2023-03-17T18:37:44.033Z,12.72
2023-03-17T18:40:15.368Z,12.67
2023-03-17T18:42:44.738Z,12.62
2023-03-17T18:45:12.136Z,12.52
2023-03-17T18:47:39.173Z,12.51
2023-03-17T18:50:08.083Z,12.46
2023-03-17T18:52:37.366Z,12.39
2023-03-17T18:55:04.518Z,12.37
2023-03-17T18:57:31.288Z,12.31
2023-03-17T18:59:57.859Z,12.29
2023-03-17T19:02:24.868Z,12.25
2023-03-17T19:04:51.460Z,12.22
2023-03-17T19:07:18.616Z,12.19
2023-03-17T19:09:45.326Z,12.16
2023-03-17T19:12:12.245Z,12.12
2023-03-17T19:14:39.098Z,12.12
2023-03-17T19:17:06.288Z,12.11
2023-03-17T19:19:33.914Z,12.11
2023-03-17T19:22:01.063Z,12.12
2023-03-17T19:24:27.601Z,12.13
2023-03-17T19:26:54.202Z,12.14
2023-03-17T19:29:20.923Z,12.14
2023-03-17T19:31:48.619Z,12.16
2023-03-17T19:34:15.458Z,12.17
2023-03-17T19:36:46.372Z,12.18
2023-03-17T19:39:14.050Z,12.19
2023-03-17T19:41:40.865Z,12.18
2023-03-17T19:44:07.809Z,12.17
2023-03-17T19:46:36.138Z,12.11
2023-03-17T19:49:03.150Z,12.16
2023-03-17T19:51:31.806Z,12.11
2023-03-17T19:53:58.470Z,12.12
2023-03-17T19:56:25.147Z,12.13
2023-03-17T19:58:51.992Z,12.12
2023-03-17T20:01:18.754Z,12.10
2023-03-17T20:03:45.780Z,12.12
2023-03-17T20:06:13.431Z,12.11
2023-03-17T20:08:41.212Z,12.13
2023-03-17T20:11:07.984Z,12.12
2023-03-17T20:13:35.846Z,12.10
2023-03-17T20:16:02.970Z,12.11
2023-03-17T20:18:29.815Z,12.13
2023-03-17T20:20:57.731Z,12.10
2023-03-17T20:23:25.173Z,12.06
2023-03-17T20:25:52.607Z,12.05
2023-03-17T20:28:21.478Z,12.05
2023-03-17T20:30:49.341Z,12.04
2023-03-17T20:33:16.793Z,12.04
2023-03-17T20:35:46.912Z,12.01
2023-03-17T20:38:14.694Z,11.98
2023-03-17T20:40:42.090Z,11.96
2023-03-17T20:43:09.471Z,11.95
2023-03-17T20:45:37.071Z,11.90
2023-03-17T20:48:06.084Z,11.89
2023-03-17T20:50:34.389Z,11.86
2023-03-17T20:53:01.704Z,11.79
2023-03-17T20:55:28.942Z,11.81
2023-03-17T20:57:58.703Z,11.74
2023-03-17T21:00:26.245Z,11.75
2023-03-17T21:02:53.240Z,11.72
2023-03-17T21:05:23.832Z,11.65
2023-03-17T21:07:50.917Z,11.69
2023-03-17T21:10:18.153Z,11.65
2023-03-17T21:12:45.380Z,11.64
2023-03-17T21:15:12.997Z,11.60
2023-03-17T21:17:40.228Z,11.56
2023-03-17T21:20:09.586Z,11.50
2023-03-17T21:22:36.977Z,11.50
2023-03-17T21:25:04.718Z,11.46
2023-03-17T21:27:31.407Z,11.44
2023-03-17T21:29:58.082Z,11.41
2023-03-17T21:32:25.071Z,11.40
2023-03-17T21:34:51.744Z,11.37
2023-03-17T21:37:18.847Z,11.36
2023-03-17T21:39:45.926Z,11.34
2023-03-17T21:42:12.874Z,11.31
2023-03-17T21:44:39.675Z,11.28
2023-03-17T21:47:07.682Z,11.26
2023-03-17T21:49:34.254Z,11.26
2023-03-17T21:52:01.296Z,11.22
2023-03-17T21:54:28.419Z,11.21
2023-03-17T21:56:54.937Z,11.18
2023-03-17T21:59:21.447Z,11.20
2023-03-17T22:01:52.082Z,11.13
2023-03-17T22:04:18.928Z,11.11
2023-03-17T22:06:45.541Z,11.00
2023-03-17T22:09:13.088Z,11.05
2023-03-17T22:11:39.624Z,11.05
2023-03-17T22:14:06.543Z,11.08
2023-03-17T22:16:33.221Z,11.00
2023-03-17T22:19:00.059Z,11.03
2023-03-17T22:21:26.697Z,11.02
2023-03-17T22:23:53.233Z,10.96
2023-03-17T22:26:21.810Z,10.98
2023-03-17T22:28:50.012Z,10.99
2023-03-17T22:31:19.858Z,10.97
2023-03-17T22:33:48.901Z,10.97
2023-03-17T22:36:15.851Z,10.95
2023-03-17T22:38:42.642Z,10.95
2023-03-17T22:41:13.068Z,10.96
2023-03-17T22:43:40.387Z,10.91
2023-03-17T22:46:07.526Z,10.91
2023-03-17T22:48:36.154Z,10.84
2023-03-17T22:51:04.411Z,10.83
2023-03-17T22:53:31.618Z,10.78
2023-03-17T22:55:59.003Z,10.77
2023-03-17T22:58:26.145Z,10.78
2023-03-17T23:00:53.762Z,10.78
2023-03-17T23:03:21.202Z,10.78
2023-03-17T23:05:49.709Z,10.70
2023-03-17T23:08:17.911Z,10.72
2023-03-17T23:10:45.579Z,10.71
2023-03-17T23:13:12.701Z,10.67
2023-03-17T23:15:39.624Z,10.68
2023-03-17T23:18:06.479Z,10.65
2023-03-17T23:20:33.760Z,10.60
2023-03-17T23:23:01.804Z,10.59
2023-03-17T23:25:28.334Z,10.60
2023-03-17T23:27:55.222Z,10.58
2023-03-17T23:30:21.913Z,10.58
2023-03-17T23:32:49.315Z,10.52
2023-03-17T23:35:16.568Z,10.51
2023-03-17T23:37:43.218Z,10.46
2023-03-17T23:40:13.706Z,10.48
2023-03-17T23:42:40.412Z,10.49
2023-03-17T23:45:08.626Z,10.47
2023-03-17T23:47:35.257Z,10.50
2023-03-17T23:50:02.295Z,10.43
2023-03-17T23:52:28.940Z,10.39
2023-03-17T23:54:55.523Z,10.38
2023-03-17T23:57:22.852Z,10.44
2023-03-17T23:59:49.534Z,10.45
